Latest Weather Observations for Argyle

IDD60801

Issued at 10:01 pm CST Monday 6 February 2023 (issued every 10 minutes, with the page automatically refreshed every 10 minutes)

About weather observations | Map of weather stations | Latest weather observations for NT | Other Formats
Station Details ID: 002064 Name: ARGYLE AERODROME Lat: -16.64 Lon: 128.45 Height: 164.0 m
Data from the previous 72 hours. | See also: Recent months at Argyle
Date/Time
CST
Temp
°C
App
Temp
°C
Dew
Point
°C
Rel
Hum
%
Delta-T
°C
Wind Press
QNH
hPa
Press
MSL
hPa
Rain since
9am
mm
Dir  Spd
km/h
Gust
km/h
Spd
kts
Gust
kts
06/10:00pm 29.4 30.2 15.9 44 8.4 NNW 6 7 3 4 1008.6 1007.3 0.0
06/09:30pm 29.2 30.6 16.4 46 8.0 NNW 4 6 2 3 1008.4 1007.1 0.0
06/09:00pm 29.6 30.6 16.4 45 8.3 WNW 6 7 3 4 1008.0 1006.7 0.0
06/08:30pm 30.8 31.3 15.6 39 9.5 N 7 9 4 5 1007.8 1006.5 0.0
06/08:00pm 31.2 31.0 14.8 37 10.1 N 9 9 5 5 1007.4 1006.1 0.0
06/07:30pm 31.8 31.4 14.0 34 10.9 N 9 11 5 6 1007.1 1005.8 0.0
06/07:00pm 33.4 33.9 14.9 32 11.5 NE 6 6 3 3 1006.9 1005.6 0.0
06/06:30pm 34.1 33.4 11.9 26 13.3 NNE 7 9 4 5 1006.6 1005.3 0.0
06/06:00pm 34.7 33.9 11.8 25 13.7 NE 7 9 4 5 1006.4 1005.1 0.0
06/05:30pm 35.5 34.6 11.2 23 14.5 ESE 7 13 4 7 1006.3 1005.0 0.0
06/05:00pm 35.7 34.6 10.0 21 15.0 SE 6 11 3 6 1006.3 1005.0 0.0
06/04:30pm 35.2 33.4 9.6 21 14.9 NNW 9 15 5 8 1006.4 1005.1 0.0
06/04:00pm 35.4 34.2 10.4 22 14.7 NE 7 11 4 6 1006.6 1005.3 0.0
06/03:30pm 34.9 31.7 10.0 22 14.5 E 17 26 9 14 1006.9 1005.6 0.0
06/03:00pm 34.6 33.1 10.4 23 14.1 SSE 9 17 5 9 1007.1 1005.8 0.0
06/02:30pm 35.1 34.0 12.1 25 13.8 SE 9 24 5 13 1007.5 1006.2 0.0
06/02:00pm 34.4 33.2 12.7 27 13.1 E 11 19 6 10 1007.9 1006.6 0.0
06/01:30pm 34.3 32.5 12.0 25 13.4 ESE 13 20 7 11 1008.4 1007.1 0.0
06/01:00pm 34.0 31.4 9.3 22 14.2 E 13 19 7 10 1008.8 1007.5 0.0
06/12:30pm 33.9 32.6 11.1 25 13.5 E 9 17 5 9 1009.2 1007.9 0.0
06/12:00pm 33.2 32.4 11.7 27 12.7 ENE 7 15 4 8 1009.6 1008.3 0.0
06/11:30am 32.2 31.6 13.4 32 11.4 NNE 9 15 5 8 1009.9 1008.6 0.0
06/11:00am 32.0 31.5 13.7 33 11.1 ENE 9 13 5 7 1010.2 1008.9 0.0
06/10:30am 31.1 30.8 14.3 36 10.3 E 9 13 5 7 1010.3 1009.0 0.0
06/10:00am 30.4 30.6 16.8 44 8.6 E 11 15 6 8 1010.3 1009.0 0.0
06/09:30am 29.0 29.5 16.5 46 7.8 E 9 13 5 7 1010.4 1009.1 0.0
06/09:00am 28.4 28.8 16.3 47 7.6 ESE 9 13 5 7 1010.2 1008.9 0.0
06/08:30am 27.2 28.4 17.4 55 6.2 ESE 7 13 4 7 1010.1 1008.8 0.0
06/08:00am 25.6 27.2 18.3 64 4.7 SE 7 11 4 6 1009.8 1008.5 0.0
06/07:30am 23.5 25.2 18.6 74 3.1 E 7 9 4 5 1009.7 1008.4 0.0
06/07:00am 23.5 24.5 17.7 70 3.6 SSE 9 11 5 6 1009.2 1007.9 0.0
06/06:30am 23.4 24.4 17.8 71 3.5 SSE 9 11 5 6 1008.7 1007.4 0.0
06/06:00am 23.7 25.1 17.9 70 3.6 SSE 7 9 4 5 1008.4 1007.1 0.0
06/05:30am 24.8 26.0 16.8 61 5.0 S 6 9 3 5 1008.2 1006.9 0.0
06/05:00am 24.9 27.5 17.6 64 4.6 CALM 0 0 0 0 1008.0 1006.7 0.0
06/04:30am 26.0 27.4 17.4 59 5.4 SW 6 7 3 4 1007.9 1006.6 0.0
06/04:00am 26.1 27.9 18.8 64 4.7 SW 7 9 4 5 1007.9 1006.6 0.0
06/03:30am 26.3 28.4 19.4 66 4.5 SW 7 9 4 5 1008.0 1006.7 0.0
06/03:00am 26.0 28.7 20.6 72 3.6 SW 7 9 4 5 1008.0 1006.7 0.0
06/02:30am 26.1 30.0 20.4 71 3.8 CALM 0 0 0 0 1008.1 1006.8 0.0
06/02:00am 26.0 28.1 20.1 70 3.9 N 9 13 5 7 1008.3 1007.0 0.0
06/01:30am 26.3 30.2 20.4 70 3.9 CALM 0 0 0 0 1008.3 1007.0 0.0
06/01:00am 26.4 30.6 20.9 72 3.6 CALM 0 6 0 3 1008.6 1007.3 0.0
06/12:30am 26.9 29.3 20.0 66 4.5 SE 7 7 4 4 1008.8 1007.5 0.0
06/12:00am 26.7 29.8 21.0 71 3.8 ESE 6 7 3 4 1008.9 1007.6 0.0
 
Date/Time
CST
Temp
°C
App
Temp
°C
Dew
Point
°C
Rel
Hum
%
Delta-T
°C
Wind Press
QNH
hPa
Press
MSL
hPa
Rain since
9am
mm
Dir  Spd
km/h
Gust
km/h
Spd
kts
Gust
kts
05/11:30pm 27.9 30.1 19.1 58 5.7 SSE 6 7 3 4 1008.8 1007.5 0.0
05/11:00pm 28.3 31.8 19.5 59 5.8 CALM 0 0 0 0 1008.7 1007.4 0.0
05/10:30pm 28.8 32.4 19.7 58 6.0 CALM 0 0 0 0 1008.5 1007.2 0.0
05/10:00pm 28.6 31.9 19.2 56 6.1 CALM 0 0 0 0 1008.3 1007.0 0.0
05/09:30pm 29.3 31.0 18.1 51 7.2 NNE 6 7 3 4 1008.0 1006.7 0.0
05/09:00pm 29.3 30.7 18.7 52 6.9 NNE 9 9 5 5 1007.7 1006.4 0.0
05/08:30pm 29.5 30.9 18.6 52 7.1 NNE 9 11 5 6 1007.5 1006.2 0.0
05/08:00pm 30.3 32.2 19.0 50 7.4 NNE 7 9 4 5 1007.3 1006.0 0.0
05/07:30pm 30.9 32.6 18.6 48 8.0 NE 7 7 4 4 1006.9 1005.6 0.0
05/07:00pm 32.1 33.5 17.9 42 9.2 NNE 7 9 4 5 1006.6 1005.3 0.0
05/06:30pm 33.2 33.4 15.7 35 11.0 ENE 9 15 5 8 1006.4 1005.1 0.0
05/06:00pm 33.2 32.8 15.2 33 11.2 ENE 11 17 6 9 1006.2 1004.9 0.0
05/05:30pm 33.1 33.1 17.3 39 10.2 ENE 13 20 7 11 1006.1 1004.8 0.0
05/05:00pm 33.9 33.7 17.6 38 10.6 E 15 26 8 14 1006.0 1004.7 0.0
05/04:30pm 33.3 34.0 17.1 38 10.4 ESE 9 13 5 7 1006.2 1004.9 0.0
05/04:00pm 33.3 34.0 17.9 40 10.0 E 11 19 6 10 1006.4 1005.1 0.0
05/03:30pm 32.8 33.4 17.8 40 9.7 E 11 17 6 9 1006.7 1005.4 0.0
05/03:00pm 33.4 34.3 18.3 40 9.9 E 11 20 6 11 1006.9 1005.6 0.0
05/02:30pm 33.1 34.2 19.6 45 9.0 ESE 13 19 7 10 1007.2 1005.9 0.0
05/02:00pm 33.3 33.9 18.6 41 9.6 ENE 13 19 7 10 1007.5 1006.2 0.0
05/01:30pm 32.8 33.3 19.3 45 8.9 ENE 15 20 8 11 1007.9 1006.6 0.0
05/01:00pm 32.7 34.0 20.2 47 8.4 ENE 13 19 7 10 1008.2 1006.9 0.0
05/12:30pm 32.6 33.0 19.8 46 8.5 ENE 17 28 9 15 1008.5 1007.2 0.0
05/12:00pm 31.3 33.1 20.3 52 7.3 NE 11 19 6 10 1009.0 1007.7 0.0
05/11:30am 30.4 32.2 21.2 58 6.2 E 13 20 7 11 1009.2 1007.9 0.0
05/11:00am 29.8 32.2 21.5 61 5.6 E 11 15 6 8 1009.5 1008.2 0.0
05/10:30am 29.1 31.9 21.6 64 5.1 E 9 15 5 8 1009.6 1008.3 0.0
05/10:00am 27.4 30.1 21.4 70 4.0 ESE 9 15 5 8 1009.6 1008.3 0.0
05/09:30am 26.7 29.2 21.0 71 3.8 ESE 9 13 5 7 1009.3 1008.0 0.0
05/09:00am 26.3 29.0 21.3 74 3.3 ESE 9 17 5 9 1009.3 1008.0 0.0
05/08:30am 26.1 29.2 21.1 74 3.3 NNW 6 9 3 5 1009.0 1007.7 0.0
05/08:00am 25.6 28.4 20.8 75 3.2 WNW 7 11 4 6 1008.8 1007.5 0.0
05/07:30am 25.0 27.8 20.9 78 2.7 NE 7 11 4 6 1008.8 1007.5 0.0
05/07:00am 25.1 29.3 21.0 78 2.7 CALM 0 0 0 0 1008.2 1006.9 0.0
05/06:30am 25.1 28.0 20.6 76 3.0 SSW 6 9 3 5 1007.8 1006.5 0.0
05/06:00am 24.6 27.3 20.7 79 2.6 W 7 9 4 5 1007.7 1006.4 0.0
05/05:30am 24.2 26.5 20.7 81 2.3 NW 9 13 5 7 1007.5 1006.2 0.0
05/05:00am 23.9 26.1 20.4 81 2.3 NNE 9 15 5 8 1007.7 1006.4 0.0
05/04:30am 24.2 25.9 20.9 82 2.2 NNE 13 20 7 11 1007.6 1006.3 0.0
05/04:05am 25.0 25.6 21.3 80 2.5 NE 20 30 11 16 1007.8 1006.5 0.0
05/04:00am 25.1 25.2 21.2 79 2.6 NE 22 33 12 18 1007.8 1006.5 0.0
05/03:45am 25.6 27.2 21.5 78 2.7 NE 15 33 8 18 1007.6 1006.3 0.0
05/03:30am 25.9 29.2 21.8 78 2.8 NE 7 11 4 6 1007.4 1006.1 0.0
05/03:00am 26.0 29.5 21.9 78 2.8 NW 6 11 3 6 1006.9 1005.6 0.0
05/02:30am 25.7 29.2 21.8 79 2.6 E 6 7 3 4 1007.1 1005.8 0.0
05/02:00am 25.9 29.3 21.6 77 2.9 ESE 6 9 3 5 1007.2 1005.9 0.0
05/01:30am 25.9 29.1 21.3 76 3.1 E 6 7 3 4 1007.5 1006.2 0.0
05/01:00am 26.1 28.3 21.1 74 3.3 SE 11 17 6 9 1007.6 1006.3 0.0
05/12:30am 26.4 28.2 21.2 73 3.5 SE 13 17 7 9 1007.8 1006.5 0.0
05/12:00am 26.6 28.5 21.4 73 3.5 SE 13 15 7 8 1008.1 1006.8 0.0
 
Date/Time
CST
Temp
°C
App
Temp
°C
Dew
Point
°C
Rel
Hum
%
Delta-T
°C
Wind Press
QNH
hPa
Press
MSL
hPa
Rain since
9am
mm
Dir  Spd
km/h
Gust
km/h
Spd
kts
Gust
kts
04/11:30pm 26.8 29.0 21.1 71 3.8 ESE 11 15 6 8 1008.3 1007.0 0.0
04/11:00pm 27.3 28.0 20.4 66 4.6 ESE 17 22 9 12 1008.2 1006.9 0.0
04/10:30pm 28.4 28.8 19.9 60 5.6 SE 17 26 9 14 1007.9 1006.6 0.0
04/10:00pm 28.4 29.8 19.6 59 5.8 E 11 15 6 8 1007.4 1006.1 0.0
04/09:30pm 28.6 30.8 19.5 58 6.0 ESE 7 13 4 7 1007.0 1005.7 0.0
04/09:00pm 28.5 28.6 20.0 60 5.6 E 19 30 10 16 1006.2 1004.9 0.0
04/08:30pm 29.1 29.3 20.5 59 5.7 E 20 33 11 18 1005.8 1004.5 0.0
04/08:00pm 29.4 29.5 21.1 61 5.6 E 22 35 12 19 1005.1 1003.8 0.0
04/07:30pm 31.8 32.9 18.0 43 9.0 NE 9 11 5 6 1004.1 1002.8 0.0
04/07:00pm 33.6 34.5 16.5 36 10.9 NNE 7 11 4 6 1003.6 1002.3 0.0
04/06:30pm 34.7 35.0 16.1 33 11.9 NE 9 13 5 7 1002.9 1001.6 0.0
04/06:00pm 35.3 35.8 15.6 31 12.5 NE 7 13 4 7 1002.7 1001.4 0.0
04/05:30pm 35.8 36.1 15.0 29 13.1 ENE 7 11 4 6 1002.5 1001.2 0.0
04/05:00pm 35.6 35.3 14.3 28 13.2 NNE 9 15 5 8 1002.5 1001.2 0.0
04/04:30pm 36.2 36.4 14.2 26 13.7 NE 6 13 3 7 1002.6 1001.3 0.0
04/04:00pm 35.4 35.8 16.2 32 12.2 NE 9 17 5 9 1002.8 1001.5 0.0
04/03:30pm 35.4 36.1 17.1 33 11.9 NE 9 15 5 8 1003.2 1001.9 0.0
04/03:00pm 35.3 35.6 16.1 32 12.2 ESE 9 13 5 7 1003.5 1002.2 0.0
04/02:30pm 34.9 35.6 16.2 32 11.9 E 7 11 4 6 1004.0 1002.7 0.0
04/02:00pm 34.8 34.7 16.1 32 11.9 E 11 17 6 9 1004.3 1003.0 0.0
04/01:30pm 34.9 35.6 16.2 32 11.9 SSE 7 13 4 7 1004.6 1003.3 0.0
04/01:00pm 34.0 34.8 16.4 35 11.2 ESE 7 13 4 7 1005.2 1003.9 0.0
04/12:30pm 33.8 34.5 17.1 37 10.8 E 9 17 5 9 1005.4 1004.1 0.0
04/12:00pm 33.3 33.8 16.6 36 10.6 SE 9 17 5 9 1005.9 1004.6 0.0
04/11:30am 32.9 33.7 16.3 37 10.5 ESE 7 13 4 7 1006.1 1004.8 0.0
04/11:00am 31.9 32.1 15.8 38 10.1 ESE 9 15 5 8 1006.1 1004.8 0.0
04/10:30am 31.5 31.4 15.0 36 10.2 ESE 9 15 5 8 1006.1 1004.8 0.0
04/10:00am 31.0 30.8 13.7 34 10.5 SE 7 11 4 6 1006.2 1004.9 0.0
04/09:30am 30.2 30.8 15.9 42 8.9 ESE 7 9 4 5 1006.2 1004.9 0.0
04/09:00am 28.2 29.7 18.0 54 6.5 SE 7 11 4 6 1006.2 1004.9 0.0
04/08:30am 27.1 28.2 17.0 54 6.4 SSE 7 11 4 6 1006.0 1004.7 0.0
04/08:00am 26.3 27.7 17.9 60 5.3 ESE 7 11 4 6 1006.2 1004.9 0.0
04/07:30am 25.6 26.1 16.5 57 5.7 SSE 9 13 5 7 1005.8 1004.5 0.0
04/07:00am 25.3 26.4 16.7 59 5.3 S 6 9 3 5 1005.2 1003.9 0.0
04/06:30am 24.3 25.8 18.9 72 3.5 W 9 11 5 6 1004.6 1003.3 0.0
04/06:00am 24.2 25.2 18.6 71 3.6 W 11 13 6 7 1004.2 1002.9 0.0
04/05:30am 24.9 26.8 18.6 68 4.0 W 6 7 3 4 1004.2 1002.9 0.0
04/05:00am 24.5 26.2 19.3 73 3.4 WSW 9 9 5 5 1003.9 1002.6 0.0
04/04:30am 24.3 26.2 19.8 76 2.9 WSW 9 11 5 6 1003.8 1002.5 0.0
04/04:00am 25.5 28.3 20.5 74 3.3 WNW 6 9 3 5 1003.6 1002.3 0.0
04/03:30am 25.7 27.4 18.6 65 4.6 W 7 9 4 5 1003.7 1002.4 0.0
04/03:00am 27.4 29.4 18.7 59 5.6 WNW 6 9 3 5 1003.9 1002.6 0.0
04/02:30am 26.8 27.1 14.9 48 7.3 NE 7 9 4 5 1004.0 1002.7 0.0
04/02:00am 25.6 27.4 18.3 64 4.7 WSW 6 13 3 7 1004.2 1002.9 0.0
04/01:30am 28.3 27.7 13.4 40 8.9 S 9 11 5 6 1004.3 1003.0 0.0
04/01:00am 26.9 28.9 18.7 60 5.3 SSW 6 7 3 4 1004.5 1003.2 0.0
04/12:30am 26.5 28.1 17.8 58 5.5 SW 6 6 3 3 1004.7 1003.4 0.0
04/12:00am 27.9 30.2 17.7 53 6.5 SSW 2 7 1 4 1004.8 1003.5 0.0

Other formats

Comma delimited format used in spreadsheet applications
http://www.bom.gov.au/fwo/IDD60801/IDD60801.94217.axf

JavaScript Object Notation format (JSON) in row-major order
http://www.bom.gov.au/fwo/IDD60801/IDD60801.94217.json

Data quality

Most of these data are generated automatically and are frequently updated. Quality checks on data are not normally performed. It is possible for incorrect values to appear. Refer to information at About Latest Weather Observations and please check the disclaimer before using these data.